FAMM/MBD METAR and TAF weather

Enter ICAO airport designator
Station Type Date Time Source
FAMM METAR 2020/03/31 22:00 UTC NOAA

FAMM 312200Z AUTO 09001KT //// // ////// 17/14 Q1021


Station Type Date Time Source
FAMM Decoded METAR 2020/03/31 22:00 UTC NOAA

Mafikeng Intl. Ad, South Africa (FAMM) 25-47S 025-32E 1300M
Mar 31, 2020 - 06:00 PM EDT / 2020.03.31 2200 UTC
Wind: from the E (090 degrees) at 1 MPH (1 KT):0
Temperature: 62 F (17 C)
Dew Point: 57 F (14 C)
Relative Humidity: 82%
Pressure (altimeter): 30.15 in. Hg (1021 hPa)
ob: FAMM 312200Z AUTO 09001KT //// // ////// 17/14 Q1021
cycle: 22

Station Type Date Time Source
FAMM TAF 2019/01/01 10:00 UTC NOAA

TAF FAMM 010900Z 0110/0118 04008KT 9999 BKN015
BECMG 0111/0113 34010KT BKN025 TX25/0113Z TN22/0118Z

Example: see airport list